Time;durP1;ratioP1;P1;durP2;ratioP2;P2;SDS_P1;SDS_P2;PMS_P1;PMS_P2;Temp;Humidity;BMP_temperature;BMP_pressure;BME280_temperature;BME280_humidity;BME280_pressure;Samples;Min_cycle;Max_cycle;Signal;HPM_P1;HPM_P2
2021/12/26 00:01:31;;;;;;;13.80;9.32;;;;;;;8.06;69.54;100008.03;5033414;28;20049;-68
2021/12/26 00:03:56;;;;;;;14.68;10.10;;;;;;;8.23;69.12;100017.66;5034898;28;20442;-69
2021/12/26 00:06:25;;;;;;;18.38;10.85;;;;;;;8.29;68.94;100014.22;5034455;28;20041;-70
2021/12/26 00:08:53;;;;;;;12.73;9.57;;;;;;;8.29;68.96;100015.94;5033560;28;20056;-69
2021/12/26 00:11:19;;;;;;;14.77;10.98;;;;;;;8.08;69.05;100015.03;5032863;28;20485;-69
2021/12/26 00:13:45;;;;;;;16.98;9.82;;;;;;;8.13;69.26;100025.50;5034215;28;20132;-70
2021/12/26 00:16:11;;;;;;;13.25;9.40;;;;;;;8.22;68.70;100021.16;5034133;28;20041;-69
2021/12/26 00:18:42;;;;;;;11.68;8.90;;;;;;;8.37;68.32;100035.16;5034695;28;20040;-69
2021/12/26 00:21:11;;;;;;;14.25;9.68;;;;;;;8.49;68.40;100045.66;5049127;28;20814;-68
2021/12/26 00:23:39;;;;;;;13.48;9.70;;;;;;;8.41;68.20;100044.78;5032816;28;20037;-68
2021/12/26 00:26:05;;;;;;;16.27;10.02;;;;;;;8.38;68.36;100048.22;5033138;28;20045;-68
2021/12/26 00:28:30;;;;;;;13.65;9.07;;;;;;;8.51;68.22;100074.44;5030130;28;20051;-68
2021/12/26 00:30:57;;;;;;;13.00;8.05;;;;;;;7.99;69.20;100056.78;5034533;28;20040;-68
2021/12/26 00:33:25;;;;;;;17.48;10.27;;;;;;;8.07;69.39;100052.44;5033929;28;20087;-69
2021/12/26 00:35:51;;;;;;;12.57;9.05;;;;;;;8.25;68.40;100052.53;5033623;28;20413;-69
2021/12/26 00:38:19;;;;;;;13.30;8.25;;;;;;;8.29;68.32;100078.66;5034337;28;20172;-68
2021/12/26 00:40:45;;;;;;;17.70;8.70;;;;;;;7.99;69.35;100075.06;5033965;28;20038;-69
2021/12/26 00:43:13;;;;;;;11.65;8.25;;;;;;;7.97;69.48;100092.47;5022096;28;20048;-72
2021/12/26 00:48:44;;;;;;;19.67;13.98;;;;;;;7.08;73.76;100100.53;4994463;28;20049;-68
2021/12/26 00:51:10;;;;;;;16.52;13.48;;;;;;;7.05;74.31;100124.00;4997224;28;20053;-68
2021/12/26 00:53:35;;;;;;;20.55;13.73;;;;;;;5.74;76.11;100131.06;4994244;28;20049;-68
2021/12/26 00:56:04;;;;;;;20.90;12.85;;;;;;;4.39;77.89;100116.53;4996311;28;20504;-67
2021/12/26 00:58:30;;;;;;;16.98;11.95;;;;;;;4.06;78.33;100146.16;5000063;28;20074;-68
2021/12/26 01:00:56;;;;;;;14.88;10.77;;;;;;;3.80;78.15;100136.06;4992735;28;20042;-67
2021/12/26 01:03:22;;;;;;;18.00;13.52;;;;;;;4.68;75.86;100156.06;4995131;28;20561;-68
2021/12/26 01:05:56;;;;;;;15.93;12.75;;;;;;;3.81;77.51;100147.31;4990626;28;20215;-68
2021/12/26 01:08:29;;;;;;;16.15;13.50;;;;;;;4.10;77.12;100158.38;4991521;28;20042;-67
2021/12/26 01:11:20;;;;;;;19.02;13.20;;;;;;;3.40;78.69;100143.75;4994634;28;20408;-67
2021/12/26 01:13:49;;;;;;;17.38;14.18;;;;;;;3.49;78.38;100149.13;4996642;28;20104;-67
2021/12/26 01:16:15;;;;;;;16.92;12.98;;;;;;;3.93;77.21;100158.00;4992935;28;20489;-68
2021/12/26 01:18:54;;;;;;;18.55;13.48;;;;;;;4.12;75.75;100140.19;4994764;28;20029;-67
2021/12/26 01:21:22;;;;;;;16.67;13.05;;;;;;;4.18;75.52;100155.94;4994040;28;20125;-68
2021/12/26 01:23:58;;;;;;;17.77;13.82;;;;;;;4.03;75.43;100159.06;4993965;28;20054;-71
2021/12/26 01:26:24;;;;;;;17.27;12.10;;;;;;;4.25;75.24;100180.31;4992516;28;20184;-71
2021/12/26 01:30:16;;;;;;;16.52;12.90;;;;;;;3.47;78.03;100172.47;5033357;28;20128;-67
2021/12/26 01:32:41;;;;;;;16.92;12.95;;;;;;;3.59;77.55;100170.16;5031454;28;20124;-66
2021/12/26 01:35:07;;;;;;;18.67;12.40;;;;;;;4.07;75.92;100168.66;5029801;28;20184;-67
2021/12/26 01:37:32;;;;;;;14.90;12.18;;;;;;;3.74;76.11;100167.03;5031088;28;20103;-67
2021/12/26 01:39:58;;;;;;;17.73;12.95;;;;;;;3.52;76.72;100170.84;5030086;28;20048;-69
2021/12/26 01:42:24;;;;;;;17.98;13.27;;;;;;;4.06;76.15;100198.06;5031323;28;20493;-68
2021/12/26 01:44:49;;;;;;;17.60;13.02;;;;;;;3.94;74.92;100170.13;5029328;28;20422;-67
2021/12/26 01:47:15;;;;;;;14.68;11.18;;;;;;;3.98;75.57;100171.03;5028824;28;20557;-69
2021/12/26 01:49:40;;;;;;;17.60;13.57;;;;;;;4.08;74.76;100178.22;5030257;28;20041;-68
2021/12/26 01:52:07;;;;;;;16.10;12.50;;;;;;;3.95;75.41;100208.19;5027599;28;20109;-68
2021/12/26 01:54:42;;;;;;;20.05;12.60;;;;;;;3.18;77.50;100179.50;5031613;28;20057;-68
2021/12/26 01:57:10;;;;;;;17.73;13.18;;;;;;;3.48;77.06;100166.44;5030793;28;20048;-68
2021/12/26 01:59:37;;;;;;;13.98;12.07;;;;;;;3.74;76.39;100197.31;5031561;28;20793;-68
2021/12/26 02:02:03;;;;;;;15.70;11.90;;;;;;;3.51;76.17;100186.38;5032297;28;20053;-68
2021/12/26 02:04:31;;;;;;;16.90;11.82;;;;;;;2.90;78.36;100164.94;5033292;28;20771;-67
2021/12/26 02:06:58;;;;;;;16.65;12.25;;;;;;;2.88;79.26;100196.00;5028416;28;20044;-66
2021/12/26 02:09:24;;;;;;;11.90;9.65;;;;;;;2.77;79.33;100197.41;5030122;28;20049;-67
2021/12/26 02:11:50;;;;;;;17.02;12.32;;;;;;;2.30;79.92;100168.44;5030215;28;20478;-69
2021/12/26 02:14:16;;;;;;;14.32;10.32;;;;;;;2.30;80.27;100181.41;5031106;28;20450;-68
2021/12/26 02:16:42;;;;;;;13.23;11.02;;;;;;;2.90;78.45;100193.44;5031079;28;20056;-66
2021/12/26 02:19:08;;;;;;;14.15;10.93;;;;;;;3.20;76.72;100174.34;5025264;28;20469;-67
2021/12/26 02:21:59;;;;;;;15.98;10.88;;;;;;;3.25;75.74;100178.81;5032488;28;20067;-66
2021/12/26 02:25:08;;;;;;;12.35;9.98;;;;;;;2.84;77.04;100194.16;5028829;28;20040;-66
2021/12/26 02:28:16;;;;;;;12.45;9.93;;;;;;;2.69;77.21;100181.66;5039830;27;20622;-69
2021/12/26 02:30:41;;;;;;;12.05;9.73;;;;;;;2.90;76.74;100199.53;5006644;28;20038;-68
2021/12/26 02:33:11;;;;;;;13.38;10.05;;;;;;;3.21;76.25;100186.47;5002689;28;20046;-68
2021/12/26 02:35:41;;;;;;;12.30;9.52;;;;;;;2.21;77.62;100201.81;5005303;28;20050;-68
2021/12/26 02:38:10;;;;;;;14.25;10.60;;;;;;;2.35;78.48;100207.41;5001616;28;20072;-68
2021/12/26 02:40:36;;;;;;;18.98;10.35;;;;;;;2.44;78.18;100208.56;5004331;28;20064;-68
2021/12/26 02:43:03;;;;;;;13.32;10.30;;;;;;;3.00;76.93;100205.81;5003467;28;20102;-68
2021/12/26 02:45:29;;;;;;;16.02;10.32;;;;;;;3.32;75.93;100213.56;5004454;28;20120;-67
2021/12/26 02:47:54;;;;;;;14.63;10.18;;;;;;;2.78;75.33;100195.69;5005045;28;20517;-67
2021/12/26 02:50:30;;;;;;;12.48;9.93;;;;;;;2.75;76.73;100209.44;5002594;28;20125;-67
2021/12/26 02:52:59;;;;;;;11.77;9.13;;;;;;;2.93;76.05;100233.28;5002461;28;20050;-67
2021/12/26 02:55:26;;;;;;;11.73;8.48;;;;;;;2.47;76.90;100220.72;4999869;28;20124;-69
2021/12/26 02:57:56;;;;;;;11.10;8.35;;;;;;;2.68;76.74;100225.66;5006408;28;20048;-67
2021/12/26 03:00:25;;;;;;;13.40;9.25;;;;;;;2.79;76.24;100210.41;5004285;28;20045;-68
2021/12/26 03:04:14;;;;;;;11.82;8.18;;;;;;;3.05;75.92;100242.25;5034463;28;20614;-68
2021/12/26 03:07:00;;;;;;;12.27;8.73;;;;;;;2.70;75.76;100217.09;4997359;28;20046;-68
2021/12/26 03:09:28;;;;;;;10.98;8.90;;;;;;;2.84;75.88;100225.25;4996053;28;20038;-68
2021/12/26 03:11:53;;;;;;;10.57;7.70;;;;;;;2.47;76.04;100212.94;4996570;28;20129;-68
2021/12/26 03:14:19;;;;;;;10.38;7.18;;;;;;;2.52;76.42;100211.38;4996978;28;20203;-68
2021/12/26 03:16:49;;;;;;;11.23;8.10;;;;;;;2.45;76.89;100256.03;4994731;28;20046;-68
2021/12/26 03:19:15;;;;;;;11.68;7.95;;;;;;;2.41;76.75;100242.16;4995471;28;20112;-68
2021/12/26 03:21:43;;;;;;;12.80;8.02;;;;;;;2.50;76.59;100213.91;4996843;28;20109;-67
2021/12/26 03:24:09;;;;;;;9.40;7.40;;;;;;;2.61;76.85;100234.06;4995359;28;20080;-67
2021/12/26 03:26:35;;;;;;;10.45;6.90;;;;;;;2.59;75.39;100222.78;4995539;28;20050;-68
2021/12/26 03:29:00;;;;;;;9.48;8.00;;;;;;;2.69;76.33;100236.06;4992655;28;20065;-67
2021/12/26 03:31:26;;;;;;;13.07;7.60;;;;;;;2.49;76.51;100256.19;4995250;28;20049;-67
2021/12/26 03:36:14;;;;;;;11.93;6.97;;;;;;;2.53;76.27;100252.00;5020085;28;20620;-69
2021/12/26 03:38:40;;;;;;;14.63;8.15;;;;;;;2.47;76.05;100238.84;5011824;28;20038;-68
2021/12/26 03:41:06;;;;;;;10.95;7.20;;;;;;;2.52;76.01;100235.53;5004005;28;20053;-68
2021/12/26 03:43:32;;;;;;;10.07;7.93;;;;;;;2.58;76.15;100234.00;5015327;28;20049;-69
2021/12/26 03:45:57;;;;;;;11.23;7.18;;;;;;;3.00;75.06;100278.41;5015599;28;20516;-69
2021/12/26 03:48:26;;;;;;;10.02;7.00;;;;;;;2.52;75.86;100273.53;5013891;28;20478;-71
2021/12/26 03:50:57;;;;;;;11.10;7.28;;;;;;;2.90;75.30;100292.81;5015482;28;20116;-69
2021/12/26 03:53:23;;;;;;;16.27;7.60;;;;;;;2.64;74.99;100286.84;5015243;28;20136;-71
2021/12/26 03:55:51;;;;;;;14.18;7.03;;;;;;;2.32;76.67;100278.97;5014808;28;20049;-69
2021/12/26 03:58:19;;;;;;;8.60;6.47;;;;;;;2.12;77.28;100287.81;5013041;28;21469;-68
2021/12/26 04:00:49;;;;;;;9.95;7.45;;;;;;;2.21;76.78;100293.28;5016064;28;20048;-68
2021/12/26 04:03:15;;;;;;;8.40;6.55;;;;;;;2.46;76.22;100301.84;5015390;28;20053;-68
2021/12/26 04:05:41;;;;;;;7.78;5.45;;;;;;;2.47;75.82;100296.69;5016069;28;20045;-68
2021/12/26 04:08:06;;;;;;;9.45;6.78;;;;;;;2.62;75.32;100314.44;5016079;28;20095;-71
2021/12/26 04:10:32;;;;;;;7.07;5.68;;;;;;;2.35;75.27;100290.28;5013784;28;20064;-68
2021/12/26 04:12:58;;;;;;;9.10;6.75;;;;;;;2.19;76.57;100310.47;5015016;28;20039;-69
2021/12/26 04:15:27;;;;;;;8.43;5.93;;;;;;;2.16;76.88;100328.50;5014792;28;20055;-67
2021/12/26 04:17:57;;;;;;;11.02;6.97;;;;;;;1.09;78.40;100317.06;5015865;28;21560;-70
2021/12/26 04:20:23;;;;;;;9.32;6.72;;;;;;;1.81;77.65;100310.13;5012931;28;20072;-67
2021/12/26 04:22:50;;;;;;;11.02;7.22;;;;;;;1.96;76.61;100316.63;5015116;28;20058;-68
2021/12/26 04:25:16;;;;;;;8.77;6.88;;;;;;;2.12;76.27;100321.47;5013934;28;20057;-67
2021/12/26 04:27:41;;;;;;;14.10;6.95;;;;;;;2.10;76.70;100318.81;5012195;28;20139;-68
2021/12/26 04:30:10;;;;;;;10.88;7.88;;;;;;;2.05;76.13;100285.88;5013574;28;20045;-68
2021/12/26 04:32:36;;;;;;;9.50;7.60;;;;;;;1.79;77.83;100314.34;5014522;28;20125;-71
2021/12/26 04:35:04;;;;;;;12.18;7.53;;;;;;;2.01;76.85;100335.75;5014456;28;20132;-68
2021/12/26 04:37:30;;;;;;;12.18;7.38;;;;;;;2.17;76.68;100325.06;5014859;28;20046;-68
2021/12/26 04:39:55;;;;;;;12.80;8.38;;;;;;;2.06;77.03;100339.38;5014975;28;20109;-68
2021/12/26 04:42:22;;;;;;;11.95;7.32;;;;;;;1.89;76.40;100342.28;5014232;28;20037;-68
2021/12/26 04:44:49;;;;;;;9.93;8.20;;;;;;;2.17;76.42;100355.25;5010708;28;20046;-68
2021/12/26 04:47:15;;;;;;;11.73;7.63;;;;;;;2.01;75.73;100346.97;5003719;28;20050;-68
2021/12/26 04:49:41;;;;;;;8.45;6.55;;;;;;;1.67;77.42;100356.19;4983134;28;20489;-71
2021/12/26 04:52:06;;;;;;;10.25;7.82;;;;;;;1.86;76.42;100349.94;5002297;28;20038;-71
2021/12/26 04:54:32;;;;;;;12.63;8.10;;;;;;;1.58;77.39;100379.16;5001244;28;20141;-67
2021/12/26 04:56:57;;;;;;;10.90;7.97;;;;;;;1.41;77.36;100359.56;5001735;28;20050;-67
2021/12/26 04:59:26;;;;;;;10.13;8.18;;;;;;;1.69;76.43;100361.44;5001037;28;20494;-68
2021/12/26 05:01:53;;;;;;;10.75;7.40;;;;;;;1.90;76.29;100351.81;5000636;28;20045;-68
2021/12/26 05:04:19;;;;;;;10.52;7.07;;;;;;;2.35;75.19;100373.13;5001675;28;20428;-68
2021/12/26 05:06:48;;;;;;;9.77;7.47;;;;;;;2.16;75.23;100359.56;5003425;28;20040;-69
2021/12/26 05:09:16;;;;;;;8.88;7.30;;;;;;;2.28;74.73;100336.66;5002869;28;20803;-68
2021/12/26 05:11:42;;;;;;;11.18;7.88;;;;;;;1.95;76.85;100375.25;5001764;28;22229;-67
2021/12/26 05:14:07;;;;;;;9.57;7.22;;;;;;;2.02;77.57;100366.00;5001701;28;20132;-67
2021/12/26 05:16:36;;;;;;;12.63;7.90;;;;;;;2.24;77.11;100381.41;5001860;28;20064;-68
2021/12/26 05:19:02;;;;;;;12.50;7.38;;;;;;;1.72;77.55;100355.47;5002396;28;20038;-71
2021/12/26 05:21:27;;;;;;;11.38;7.60;;;;;;;1.74;78.75;100365.06;4999330;28;20117;-68
2021/12/26 05:26:14;;;;;;;16.45;9.60;;;;;;;1.88;79.22;100376.75;5091777;27;20458;-68
2021/12/26 05:28:40;;;;;;;12.88;8.18;;;;;;;1.67;79.67;100370.84;5057940;28;20503;-69
2021/12/26 05:31:05;;;;;;;10.75;7.40;;;;;;;1.72;78.96;100386.53;5063083;28;20447;-69
2021/12/26 05:33:31;;;;;;;18.75;7.75;;;;;;;1.82;78.60;100365.31;5061989;28;20459;-68
2021/12/26 05:35:56;;;;;;;11.00;7.88;;;;;;;1.93;78.24;100376.91;5061865;28;20542;-68
2021/12/26 05:38:28;;;;;;;14.80;8.73;;;;;;;2.03;78.69;100397.09;5062479;28;20041;-71
2021/12/26 05:40:57;;;;;;;13.57;7.88;;;;;;;2.20;78.52;100402.84;5062492;28;20040;-70
2021/12/26 05:43:22;;;;;;;11.73;8.00;;;;;;;2.19;78.24;100402.78;5064417;28;20028;-68
2021/12/26 05:45:51;;;;;;;17.17;8.85;;;;;;;1.77;79.47;100388.44;5061428;28;20032;-68
2021/12/26 05:48:16;;;;;;;12.75;8.63;;;;;;;1.79;79.82;100411.78;5059183;28;20044;-68
2021/12/26 05:50:42;;;;;;;15.48;8.27;;;;;;;1.37;79.59;100399.94;5063391;28;20048;-67
2021/12/26 05:53:07;;;;;;;10.85;7.47;;;;;;;1.39;80.00;100400.88;5071035;28;20154;-67
2021/12/26 05:55:32;;;;;;;13.80;7.13;;;;;;;1.69;80.28;100410.56;5079182;28;20527;-67
2021/12/26 05:57:58;;;;;;;14.02;8.13;;;;;;;1.68;79.07;100385.50;5064252;28;20040;-67
2021/12/26 06:00:24;;;;;;;19.50;7.95;;;;;;;1.61;79.24;100396.47;5062037;28;20545;-68
2021/12/26 06:02:50;;;;;;;10.70;7.25;;;;;;;1.59;79.51;100403.28;5059224;28;20051;-68
2021/12/26 06:05:18;;;;;;;10.50;7.38;;;;;;;1.24;80.73;100419.28;5060357;28;20056;-68
2021/12/26 06:07:44;;;;;;;21.70;8.20;;;;;;;0.61;81.73;100415.97;5060772;28;20060;-68
2021/12/26 06:10:09;;;;;;;18.92;8.30;;;;;;;1.20;81.19;100404.47;5065526;28;20024;-68
2021/12/26 06:12:37;;;;;;;13.68;8.80;;;;;;;1.19;81.08;100410.47;5059942;28;20407;-69
2021/12/26 06:15:04;;;;;;;14.15;8.52;;;;;;;1.43;81.22;100418.25;5059907;28;20137;-68
2021/12/26 06:17:31;;;;;;;15.98;7.82;;;;;;;1.39;81.07;100423.25;5065137;28;20032;-67
2021/12/26 06:19:56;;;;;;;12.77;8.82;;;;;;;1.30;81.02;100412.59;5060944;28;20129;-68
2021/12/26 06:22:22;;;;;;;15.13;7.95;;;;;;;1.59;80.24;100422.31;5062248;28;20073;-68
2021/12/26 06:24:47;;;;;;;16.40;8.75;;;;;;;1.59;79.48;100436.91;5062026;28;20123;-69
2021/12/26 06:27:13;;;;;;;14.13;9.15;;;;;;;1.31;81.16;100438.50;5057810;28;20115;-68
2021/12/26 06:29:38;;;;;;;13.98;7.75;;;;;;;1.55;79.84;100420.41;5061222;28;20180;-68
2021/12/26 06:32:07;;;;;;;16.63;9.68;;;;;;;1.22;80.25;100422.66;5057627;28;20069;-68
2021/12/26 06:34:32;;;;;;;13.20;7.68;;;;;;;0.96;81.37;100419.94;5061552;28;20059;-68
2021/12/26 06:36:58;;;;;;;21.88;8.27;;;;;;;1.24;82.26;100446.81;5054648;28;20037;-70
2021/12/26 06:39:26;;;;;;;13.05;8.02;;;;;;;1.20;81.69;100432.03;5045147;28;20048;-68
2021/12/26 06:41:52;;;;;;;15.00;8.18;;;;;;;1.39;81.07;100439.66;5046268;28;20183;-69
2021/12/26 06:44:17;;;;;;;19.17;9.15;;;;;;;1.03;80.97;100440.03;5046140;28;20043;-68
2021/12/26 06:46:43;;;;;;;17.40;8.88;;;;;;;0.98;81.42;100450.97;5051513;28;20056;-68
2021/12/26 06:49:14;;;;;;;15.57;7.50;;;;;;;0.66;82.67;100447.16;5042650;28;20028;-68
2021/12/26 06:51:44;;;;;;;17.33;8.10;;;;;;;1.10;81.76;100463.50;5044624;28;20070;-70
2021/12/26 06:54:09;;;;;;;17.13;9.30;;;;;;;1.31;80.93;100456.59;5046613;28;20044;-68
2021/12/26 06:56:35;;;;;;;20.63;7.90;;;;;;;1.37;80.84;100455.94;5048166;28;20091;-68
2021/12/26 06:59:01;;;;;;;12.32;8.60;;;;;;;1.14;80.83;100457.63;5046624;28;20496;-68
2021/12/26 07:01:26;;;;;;;14.85;8.23;;;;;;;0.27;83.52;100467.91;5048994;28;20064;-70
2021/12/26 07:03:53;;;;;;;18.80;7.80;;;;;;;0.56;84.04;100474.25;5043358;28;20082;-68
2021/12/26 07:06:19;;;;;;;11.90;8.27;;;;;;;0.21;85.11;100442.72;5043688;28;20044;-68
2021/12/26 07:08:47;;;;;;;16.55;9.57;;;;;;;0.59;84.19;100446.00;5045538;28;20041;-68
2021/12/26 07:11:15;;;;;;;15.95;9.73;;;;;;;0.44;83.87;100432.47;5046557;28;20045;-70
2021/12/26 07:13:40;;;;;;;17.17;8.30;;;;;;;0.20;84.08;100439.25;5045938;28;20029;-67
2021/12/26 07:16:06;;;;;;;15.73;9.25;;;;;;;-0.15;84.26;100427.44;5046784;28;20450;-66
2021/12/26 07:18:31;;;;;;;17.23;9.32;;;;;;;-0.15;85.07;100453.22;5048928;28;20048;-66
2021/12/26 07:20:57;;;;;;;16.00;8.23;;;;;;;-0.40;85.86;100448.69;5042384;28;20041;-67
2021/12/26 07:23:22;;;;;;;15.75;9.00;;;;;;;-0.14;85.53;100446.34;5045910;28;20401;-67
2021/12/26 07:25:48;;;;;;;22.15;10.07;;;;;;;0.21;84.93;100434.97;5050184;28;20049;-67
2021/12/26 07:28:13;;;;;;;19.58;9.07;;;;;;;-0.52;85.69;100436.13;5041479;28;20029;-69
2021/12/26 07:30:39;;;;;;;17.50;10.25;;;;;;;-0.46;86.70;100453.56;5049715;28;20028;-70
2021/12/26 07:33:04;;;;;;;17.73;9.07;;;;;;;-0.39;86.78;100436.69;5042827;28;20071;-68
2021/12/26 07:35:30;;;;;;;18.17;8.32;;;;;;;-0.46;86.74;100433.84;5044333;28;20044;-67
2021/12/26 07:37:55;;;;;;;24.42;8.45;;;;;;;-0.29;86.49;100454.31;5044316;28;20498;-67
2021/12/26 07:40:21;;;;;;;18.98;8.50;;;;;;;0.09;85.80;100434.47;5045068;28;20040;-67
2021/12/26 07:42:46;;;;;;;15.20;8.70;;;;;;;-0.25;85.81;100428.75;5048047;28;20083;-66
2021/12/26 07:45:12;;;;;;;12.48;8.77;;;;;;;0.11;85.33;100432.81;5043396;28;20070;-67
2021/12/26 07:47:39;;;;;;;17.92;8.18;;;;;;;0.08;84.93;100433.59;5044417;28;20821;-67
2021/12/26 07:50:06;;;;;;;12.40;8.50;;;;;;;0.30;85.07;100426.72;5049486;28;20049;-67
2021/12/26 07:52:36;;;;;;;13.50;8.65;;;;;;;0.32;84.99;100450.91;5061301;28;20400;-69
2021/12/26 07:55:03;;;;;;;15.73;8.38;;;;;;;-0.21;85.18;100455.56;5046221;28;20044;-67
2021/12/26 07:57:29;;;;;;;13.55;9.68;;;;;;;-0.04;85.94;100446.84;5043588;28;20076;-67
2021/12/26 07:59:55;;;;;;;15.30;10.60;;;;;;;0.52;85.26;100490.47;5043448;28;20443;-69
2021/12/26 08:02:21;;;;;;;17.30;10.35;;;;;;;0.40;84.79;100465.03;5047675;28;20561;-67
2021/12/26 08:04:47;;;;;;;14.95;8.48;;;;;;;0.42;84.91;100463.38;5046452;28;20052;-67
2021/12/26 08:07:13;;;;;;;12.32;8.25;;;;;;;-0.23;85.07;100473.53;5047211;28;20036;-67
2021/12/26 08:12:07;;;;;;;11.13;7.13;;;;;;;-0.03;84.94;100458.91;5014554;28;20621;-68
2021/12/26 08:14:33;;;;;;;20.73;9.55;;;;;;;0.19;84.90;100473.63;5004326;28;20057;-68
2021/12/26 08:16:58;;;;;;;17.00;8.93;;;;;;;0.38;84.28;100476.97;5005235;28;20064;-70
2021/12/26 08:19:26;;;;;;;15.40;8.05;;;;;;;-0.14;84.99;100504.00;5001723;28;20795;-68
2021/12/26 08:21:53;;;;;;;17.63;8.68;;;;;;;0.41;85.00;100501.22;5004604;28;20045;-68
2021/12/26 08:24:18;;;;;;;12.88;8.55;;;;;;;0.32;84.04;100487.03;5004327;28;20057;-68
2021/12/26 08:26:49;;;;;;;13.82;8.07;;;;;;;0.41;83.96;100487.44;5004467;28;20073;-71
2021/12/26 08:29:15;;;;;;;10.07;7.57;;;;;;;0.44;83.46;100460.84;5000886;28;20050;-68
2021/12/26 08:32:29;;;;;;;11.98;8.80;;;;;;;0.35;83.76;100479.41;5019356;28;23504;-68
2021/12/26 08:34:55;;;;;;;13.90;8.25;;;;;;;0.15;83.96;100466.56;5003958;28;20046;-69
2021/12/26 08:37:22;;;;;;;12.48;7.22;;;;;;;0.50;83.46;100474.03;5002292;28;20041;-68
2021/12/26 08:39:48;;;;;;;13.45;9.02;;;;;;;0.65;83.47;100472.06;5003870;28;20030;-68
2021/12/26 08:42:16;;;;;;;19.88;12.13;;;;;;;0.86;83.36;100497.00;5004489;28;20425;-68
2021/12/26 08:44:42;;;;;;;15.80;10.38;;;;;;;-0.02;83.84;100472.72;5002607;28;20050;-68
2021/12/26 08:47:09;;;;;;;15.80;9.35;;;;;;;0.62;83.79;100477.09;5007268;28;20392;-68
2021/12/26 08:52:12;;;;;;;16.42;8.25;;;;;;;0.59;83.83;100483.03;5044519;27;20633;-67
2021/12/26 08:54:42;;;;;;;15.93;12.25;;;;;;;0.52;84.90;100462.94;5001286;28;20489;-70
2021/12/26 08:57:18;;;;;;;14.13;9.65;;;;;;;0.45;84.88;100476.41;5003216;28;20042;-68
2021/12/26 08:59:44;;;;;;;13.98;9.18;;;;;;;0.23;84.69;100461.72;5001899;28;20192;-67
2021/12/26 09:02:10;;;;;;;13.15;8.65;;;;;;;0.48;84.12;100455.88;5003302;28;20497;-67
2021/12/26 09:04:38;;;;;;;13.88;9.05;;;;;;;0.22;84.44;100441.91;5003066;28;20109;-68
2021/12/26 09:07:05;;;;;;;10.13;7.18;;;;;;;0.58;84.03;100439.94;5004106;28;20029;-67
2021/12/26 09:09:31;;;;;;;10.98;8.02;;;;;;;0.32;83.96;100435.44;5004380;28;20513;-67
2021/12/26 09:11:58;;;;;;;13.80;8.00;;;;;;;0.66;84.01;100444.56;5004426;28;20049;-67
2021/12/26 09:14:31;;;;;;;14.00;9.82;;;;;;;0.47;84.49;100441.22;5001402;28;20044;-67
2021/12/26 09:16:58;;;;;;;15.88;9.45;;;;;;;0.25;85.42;100460.09;5002160;28;20053;-67
2021/12/26 09:19:28;;;;;;;12.90;8.95;;;;;;;0.29;85.02;100425.84;4999084;28;20390;-69
2021/12/26 09:21:55;;;;;;;20.67;8.90;;;;;;;0.31;85.01;100425.94;5000476;28;20052;-68
2021/12/26 09:24:20;;;;;;;10.50;7.00;;;;;;;0.52;84.05;100436.25;5003054;28;20565;-68
2021/12/26 09:26:46;;;;;;;11.25;7.13;;;;;;;0.73;83.47;100450.03;5004077;28;20045;-68
2021/12/26 09:29:11;;;;;;;12.35;8.68;;;;;;;0.70;83.93;100451.59;5001893;28;20075;-67
2021/12/26 09:31:37;;;;;;;10.73;7.40;;;;;;;0.49;83.60;100451.59;4999226;28;20050;-69
2021/12/26 09:34:02;;;;;;;11.95;7.50;;;;;;;0.47;83.72;100450.66;5002312;28;20102;-68
2021/12/26 09:36:28;;;;;;;11.05;7.90;;;;;;;0.19;83.81;100457.28;5002745;28;20449;-69
2021/12/26 09:38:54;;;;;;;13.70;9.20;;;;;;;0.23;84.92;100424.72;4999205;28;20050;-67
2021/12/26 09:42:09;;;;;;;12.98;7.97;;;;;;;0.35;84.42;100459.69;5007896;27;20636;-67
2021/12/26 09:44:36;;;;;;;12.70;8.02;;;;;;;0.32;83.98;100446.63;4994382;28;20742;-67
2021/12/26 09:47:02;;;;;;;12.88;8.60;;;;;;;-0.38;85.27;100439.31;5000053;28;20517;-66
2021/12/26 09:49:27;;;;;;;9.85;8.25;;;;;;;0.24;85.20;100429.97;5005437;28;20032;-66
2021/12/26 09:51:55;;;;;;;14.48;7.78;;;;;;;0.12;85.20;100434.59;5002991;28;20371;-66
2021/12/26 09:54:20;;;;;;;12.35;8.10;;;;;;;0.05;85.57;100437.72;5001784;28;20073;-71
2021/12/26 09:56:46;;;;;;;11.10;7.72;;;;;;;-0.19;85.59;100450.44;5002763;28;20145;-68
2021/12/26 09:59:22;;;;;;;13.95;7.85;;;;;;;-0.37;86.29;100466.88;5002382;28;20362;-68
2021/12/26 10:01:54;;;;;;;14.98;8.52;;;;;;;-0.33;86.22;100445.59;4996222;28;20057;-69
2021/12/26 10:04:21;;;;;;;13.10;9.00;;;;;;;-0.11;86.14;100455.13;4983627;28;20042;-68
2021/12/26 10:06:52;;;;;;;10.63;7.10;;;;;;;-0.31;85.73;100448.22;4986051;28;20093;-68
2021/12/26 10:09:21;;;;;;;9.93;7.40;;;;;;;-0.66;86.41;100429.47;4983475;28;20383;-67
2021/12/26 10:11:49;;;;;;;11.90;9.10;;;;;;;-0.15;86.36;100435.16;4993955;28;20107;-68
2021/12/26 10:14:17;;;;;;;12.82;7.93;;;;;;;0.09;85.41;100442.19;5003593;28;20105;-69
2021/12/26 10:16:52;;;;;;;8.48;6.18;;;;;;;-0.06;86.09;100447.59;5002137;28;20426;-69
2021/12/26 10:19:18;;;;;;;9.27;7.28;;;;;;;0.49;85.83;100465.41;4999924;28;20030;-68
2021/12/26 10:22:10;;;;;;;16.52;8.32;;;;;;;-0.03;85.02;100445.13;5001329;28;20453;-67
2021/12/26 10:24:39;;;;;;;13.82;7.15;;;;;;;-0.06;85.90;100460.50;5003813;28;20668;-68
2021/12/26 10:27:09;;;;;;;13.45;8.57;;;;;;;0.36;85.47;100443.34;4995066;28;20136;-71
2021/12/26 10:29:46;;;;;;;14.60;8.45;;;;;;;0.55;84.60;100441.53;4996752;28;20046;-68
2021/12/26 10:32:22;;;;;;;9.60;6.07;;;;;;;-0.17;85.57;100431.63;5031522;28;20137;-68
2021/12/26 10:34:55;;;;;;;10.93;7.85;;;;;;;0.06;86.32;100422.31;4987126;28;20050;-68
2021/12/26 10:37:23;;;;;;;12.25;8.82;;;;;;;-0.12;86.26;100431.84;4980956;28;20042;-67
2021/12/26 10:39:52;;;;;;;13.38;9.10;;;;;;;-0.17;86.12;100410.13;5014211;28;21261;-70
2021/12/26 10:42:21;;;;;;;18.50;13.02;;;;;;;-0.11;86.18;100423.31;4980908;28;20129;-68
2021/12/26 10:44:57;;;;;;;15.50;10.20;;;;;;;0.29;86.59;100418.13;4982290;28;20081;-68
2021/12/26 10:47:28;;;;;;;10.68;7.25;;;;;;;0.62;85.72;100422.88;4975964;28;20047;-68
2021/12/26 10:50:06;;;;;;;13.20;8.15;;;;;;;-0.10;85.34;100401.84;4983132;28;20057;-68
2021/12/26 10:52:38;;;;;;;13.82;9.48;;;;;;;-0.41;86.96;100397.94;4975050;28;20126;-68
2021/12/26 10:55:08;;;;;;;12.15;7.20;;;;;;;-0.09;86.72;100439.72;4968411;28;20102;-68
2021/12/26 10:57:37;;;;;;;12.18;6.95;;;;;;;0.01;87.21;100415.22;4968541;28;20054;-68
2021/12/26 11:00:09;;;;;;;12.75;8.52;;;;;;;-0.16;86.95;100414.50;4971262;28;20140;-68
2021/12/26 11:02:36;;;;;;;17.38;9.20;;;;;;;-0.15;86.40;100430.00;4968039;28;20101;-68
2021/12/26 11:05:07;;;;;;;12.70;9.05;;;;;;;-0.14;86.16;100412.84;4964231;28;20128;-68
2021/12/26 11:08:02;;;;;;;10.75;8.65;;;;;;;-0.21;86.50;100419.47;4971101;28;20567;-70
2021/12/26 11:10:36;;;;;;;13.30;8.88;;;;;;;-0.07;87.12;100435.50;4966490;28;20038;-66
2021/12/26 11:13:06;;;;;;;11.63;9.35;;;;;;;0.39;87.13;100432.28;4964830;28;20125;-70
2021/12/26 11:15:38;;;;;;;13.75;9.00;;;;;;;0.55;86.11;100426.03;4997636;28;20062;-67
2021/12/26 11:18:09;;;;;;;10.60;8.38;;;;;;;-0.14;86.20;100429.22;4967653;28;20052;-65
2021/12/26 11:20:55;;;;;;;14.90;9.25;;;;;;;-0.28;86.69;100414.81;4962813;28;20074;-68
2021/12/26 11:23:23;;;;;;;16.52;9.07;;;;;;;-0.15;87.03;100434.28;4965722;28;20479;-68
2021/12/26 11:28:11;;;;;;;13.63;9.20;;;;;;;0.34;86.13;100450.16;5035471;28;21089;-69
2021/12/26 11:30:36;;;;;;;27.25;16.02;;;;;;;0.26;85.83;100446.38;5032392;28;20077;-70
2021/12/26 11:33:03;;;;;;;17.45;9.57;;;;;;;0.34;85.37;100421.75;5018863;28;20077;-71
2021/12/26 11:35:32;;;;;;;14.60;9.23;;;;;;;-0.23;86.40;100426.25;5016893;28;20864;-68
2021/12/26 11:38:01;;;;;;;10.23;7.38;;;;;;;0.10;86.11;100434.53;5017149;28;20053;-68
2021/12/26 11:40:26;;;;;;;13.30;8.27;;;;;;;0.31;86.20;100437.13;5017237;28;20034;-67
2021/12/26 11:43:19;;;;;;;13.90;8.52;;;;;;;0.36;85.93;100422.72;5016346;28;20025;-67
2021/12/26 11:48:59;;;;;;;12.32;8.70;;;;;;;0.84;84.83;100434.94;5060783;27;21218;-68